Terminal Aerodrome Forecast
Issued by NWS

Home | Current Version | Previous Version | Graphics & Text | Print | Product List | Glossary On
Versions: 1 2 3 4 5 6 7 8 9 10 11 12 13 14 15 16 17 18
000
FTUS43 KBIS 131100
TAFMOT
TAF
KMOT 131135Z 1312/1412 18007KT P6SM BKN150
     FM131800 29014G20KT P6SM BKN035
     FM140100 28007KT P6SM BKN035=

USA.gov is the U.S. government's official web portal to all federal, state and local government web resources and services.